aviador You're here:

KBKX Decoded Metar

BROOKINGS in SD, USA
Report Time2017-11-23 02:56:00
UTC Time2017-11-23 03:34:00
Flight Rules vfr VFR
Wind160° at 04 kt
W.Decomp.*RWY 17: 3.8 kt HW 1.1 kt LCW
RWY 12: 3.3 kt HW 2.2 kt RCW
W.Rank160° ranks 1
Current wind is below 160° avg. (10.9)
Visibility9999 m
Phenomena:N/A
Clouds:N/A
Expected CloudBase > 3,200 ft AGL from Temp-Dew spread
CeilingNone
Temp01°C (ISA -11)
Dew Point-7°C (56% RH)
AAT-3.2°C
QNH1013 hPa
Density Alt400 ft
Elevation1,647 ft
Report Wrong Elevation
Raw Report
METAR KBKX 230256Z AUTO 16004KT 10SM CLR 01/M07 A2991 RMK AO2 SLP164
T00061067 56011 FZRANO=

Extra information for KBKX:More info

Metar Taf Metar & Taf Last 4 Metars F.Rules Stats Wind Profile Meteogram Temp Stats Airport Information Weather charts Add Link Nearby VenuesMetar ALERT Operation Metar Decoded Social comments

AIRNAV info for KBKX